Accueil
METAR-TAF:

METAR-TAF

Aéroports :

Base aérienne 120 Cazaux

Cazaux, France

latitude: 44-32N, longitude: 001-08W, altitude: 25 m

Observation

Le bulletin a été fait il y a 1 heure et 6 minutes, à 11:00 UTC
Vent 5 kt de nord-est, variant entre nord et sud/sud-est
Température 14°C
Humidité 44%
Pression 1020 hPa
Visibilité 10 km ou plus
pas de nuages en-dessous de 1500 mètres et pas de cumulonimbus.

METAR: LFBC 031100Z AUTO 05005KT 360V160 CAVOK 14/02 Q1020 NOSIG

Heure: 14:06 (12:06 UTC)

Prévision

Le bulletin a été fait il y a 4 heures et 6 minutes, à 08:00 UTC
Prévision valable du 03 à 09 UTC au 04 à 09 UTC
Vent 10 kt de nord/nord-est
Visibilité 10 km ou plus
pas de nuages en-dessous de 1500 mètres et pas de cumulonimbus.

TAF: LFBC 030800Z 0309/0409 02010KT CAVOK

Observations et prévisions météorologiques de plus de 4000 aéroports (messages METAR et TAF).

Les stations disponibles sont représentées par des disques jaunes et rouges sur la carte.

Passer la souris dessus pour voir le nom de la station.

Cliquer dessus pour voir les observations et prévisions météorologiques.

Pour changer de carte: cliquez sur les boutons verts avec une croix noire pour zoomer, sur le bouton vert avec un tiret pour effectuer un zoom arrière, ou sur les flèches vertes pour les cartes adjacentes.


METAR-TAF: